sensor_id;sensor_type;location;lat;lon;timestamp;P1;durP1;ratioP1;P2;durP2;ratioP2
11090;SDS011;5599;52.210;21.046;2023-09-08T00:01:02;8.38;;;6.57;;
11090;SDS011;5599;52.210;21.046;2023-09-08T00:03:31;10.73;;;6.60;;
11090;SDS011;5599;52.210;21.046;2023-09-08T00:06:01;7.97;;;6.93;;
11090;SDS011;5599;52.210;21.046;2023-09-08T00:08:31;8.38;;;6.85;;
11090;SDS011;5599;52.210;21.046;2023-09-08T00:11:02;8.23;;;7.40;;
11090;SDS011;5599;52.210;21.046;2023-09-08T00:13:33;9.10;;;6.60;;
11090;SDS011;5599;52.210;21.046;2023-09-08T00:16:02;9.93;;;6.60;;
11090;SDS011;5599;52.210;21.046;2023-09-08T00:18:32;8.40;;;6.38;;
11090;SDS011;5599;52.210;21.046;2023-09-08T00:21:01;8.15;;;6.68;;
11090;SDS011;5599;52.210;21.046;2023-09-08T00:23:30;10.18;;;6.53;;
11090;SDS011;5599;52.210;21.046;2023-09-08T00:25:59;11.45;;;6.35;;
11090;SDS011;5599;52.210;21.046;2023-09-08T00:28:30;8.30;;;6.75;;
11090;SDS011;5599;52.210;21.046;2023-09-08T00:31:00;10.27;;;6.60;;
11090;SDS011;5599;52.210;21.046;2023-09-08T00:33:29;8.60;;;6.97;;
11090;SDS011;5599;52.210;21.046;2023-09-08T00:35:58;7.60;;;6.68;;
11090;SDS011;5599;52.210;21.046;2023-09-08T00:38:28;8.73;;;6.95;;
11090;SDS011;5599;52.210;21.046;2023-09-08T00:40:57;8.52;;;6.63;;
11090;SDS011;5599;52.210;21.046;2023-09-08T00:43:29;7.55;;;6.82;;
11090;SDS011;5599;52.210;21.046;2023-09-08T00:45:59;8.68;;;6.45;;
11090;SDS011;5599;52.210;21.046;2023-09-08T00:48:30;8.52;;;6.97;;
11090;SDS011;5599;52.210;21.046;2023-09-08T00:51:00;7.03;;;6.30;;
11090;SDS011;5599;52.210;21.046;2023-09-08T00:53:32;9.68;;;6.75;;
11090;SDS011;5599;52.210;21.046;2023-09-08T00:56:02;7.70;;;6.90;;
11090;SDS011;5599;52.210;21.046;2023-09-08T00:58:32;7.97;;;7.15;;
11090;SDS011;5599;52.210;21.046;2023-09-08T01:01:02;10.18;;;7.00;;
11090;SDS011;5599;52.210;21.046;2023-09-08T01:03:33;7.45;;;6.65;;
11090;SDS011;5599;52.210;21.046;2023-09-08T01:06:02;14.38;;;7.40;;
11090;SDS011;5599;52.210;21.046;2023-09-08T01:08:34;8.68;;;7.10;;
11090;SDS011;5599;52.210;21.046;2023-09-08T01:11:04;7.13;;;6.43;;
11090;SDS011;5599;52.210;21.046;2023-09-08T01:13:35;10.63;;;7.25;;
11090;SDS011;5599;52.210;21.046;2023-09-08T01:16:04;7.47;;;6.65;;
11090;SDS011;5599;52.210;21.046;2023-09-08T01:18:34;8.25;;;7.15;;
11090;SDS011;5599;52.210;21.046;2023-09-08T01:21:16;8.07;;;6.60;;
11090;SDS011;5599;52.210;21.046;2023-09-08T01:24:08;8.35;;;6.55;;
11090;SDS011;5599;52.210;21.046;2023-09-08T01:26:51;9.52;;;6.95;;
11090;SDS011;5599;52.210;21.046;2023-09-08T01:29:21;8.80;;;6.90;;
11090;SDS011;5599;52.210;21.046;2023-09-08T01:31:53;9.60;;;6.82;;
11090;SDS011;5599;52.210;21.046;2023-09-08T01:34:25;7.32;;;6.65;;
11090;SDS011;5599;52.210;21.046;2023-09-08T01:36:54;10.13;;;7.38;;
11090;SDS011;5599;52.210;21.046;2023-09-08T01:39:24;7.45;;;6.55;;
11090;SDS011;5599;52.210;21.046;2023-09-08T01:41:54;10.85;;;6.97;;
11090;SDS011;5599;52.210;21.046;2023-09-08T01:44:24;10.50;;;7.25;;
11090;SDS011;5599;52.210;21.046;2023-09-08T01:46:53;8.32;;;7.03;;
11090;SDS011;5599;52.210;21.046;2023-09-08T01:49:24;8.35;;;6.88;;
11090;SDS011;5599;52.210;21.046;2023-09-08T01:51:53;7.97;;;6.70;;
11090;SDS011;5599;52.210;21.046;2023-09-08T01:54:23;8.48;;;6.45;;
11090;SDS011;5599;52.210;21.046;2023-09-08T01:56:55;8.45;;;6.70;;
11090;SDS011;5599;52.210;21.046;2023-09-08T01:59:24;8.60;;;6.53;;
11090;SDS011;5599;52.210;21.046;2023-09-08T02:01:54;8.10;;;6.80;;
11090;SDS011;5599;52.210;21.046;2023-09-08T02:04:23;9.70;;;6.78;;
11090;SDS011;5599;52.210;21.046;2023-09-08T02:06:52;7.28;;;6.57;;
11090;SDS011;5599;52.210;21.046;2023-09-08T02:09:21;8.90;;;7.20;;
11090;SDS011;5599;52.210;21.046;2023-09-08T02:11:59;6.95;;;6.35;;
11090;SDS011;5599;52.210;21.046;2023-09-08T02:14:29;11.10;;;6.78;;
11090;SDS011;5599;52.210;21.046;2023-09-08T02:16:58;9.40;;;7.15;;
11090;SDS011;5599;52.210;21.046;2023-09-08T02:19:27;9.43;;;6.43;;
11090;SDS011;5599;52.210;21.046;2023-09-08T02:21:57;8.68;;;6.20;;
11090;SDS011;5599;52.210;21.046;2023-09-08T02:24:26;8.13;;;7.05;;
11090;SDS011;5599;52.210;21.046;2023-09-08T02:26:57;10.05;;;6.80;;
11090;SDS011;5599;52.210;21.046;2023-09-08T02:29:27;8.55;;;6.70;;
11090;SDS011;5599;52.210;21.046;2023-09-08T02:31:57;9.20;;;7.15;;
11090;SDS011;5599;52.210;21.046;2023-09-08T02:34:26;9.30;;;6.93;;
11090;SDS011;5599;52.210;21.046;2023-09-08T02:36:55;12.30;;;7.25;;
11090;SDS011;5599;52.210;21.046;2023-09-08T02:39:25;11.18;;;7.53;;
11090;SDS011;5599;52.210;21.046;2023-09-08T02:41:55;8.30;;;7.05;;
11090;SDS011;5599;52.210;21.046;2023-09-08T02:44:24;10.77;;;6.65;;
11090;SDS011;5599;52.210;21.046;2023-09-08T02:46:55;8.48;;;7.22;;
11090;SDS011;5599;52.210;21.046;2023-09-08T02:49:25;9.93;;;6.68;;
11090;SDS011;5599;52.210;21.046;2023-09-08T02:51:54;11.13;;;7.75;;
11090;SDS011;5599;52.210;21.046;2023-09-08T02:54:23;11.15;;;7.50;;
11090;SDS011;5599;52.210;21.046;2023-09-08T02:56:52;8.90;;;6.72;;
11090;SDS011;5599;52.210;21.046;2023-09-08T02:59:21;8.90;;;8.00;;
11090;SDS011;5599;52.210;21.046;2023-09-08T03:01:50;11.73;;;7.60;;
11090;SDS011;5599;52.210;21.046;2023-09-08T03:04:24;10.40;;;7.60;;
11090;SDS011;5599;52.210;21.046;2023-09-08T03:06:54;10.35;;;7.72;;
11090;SDS011;5599;52.210;21.046;2023-09-08T03:09:23;12.77;;;7.72;;
11090;SDS011;5599;52.210;21.046;2023-09-08T03:11:52;12.43;;;7.82;;
11090;SDS011;5599;52.210;21.046;2023-09-08T03:14:21;10.93;;;7.55;;
11090;SDS011;5599;52.210;21.046;2023-09-08T03:16:51;10.02;;;7.60;;
11090;SDS011;5599;52.210;21.046;2023-09-08T03:19:20;11.30;;;7.45;;
11090;SDS011;5599;52.210;21.046;2023-09-08T03:21:51;24.00;;;8.32;;
11090;SDS011;5599;52.210;21.046;2023-09-08T03:24:21;14.20;;;7.20;;
11090;SDS011;5599;52.210;21.046;2023-09-08T03:26:50;13.98;;;8.32;;
11090;SDS011;5599;52.210;21.046;2023-09-08T03:29:21;11.27;;;7.60;;
11090;SDS011;5599;52.210;21.046;2023-09-08T03:31:51;14.60;;;7.50;;
11090;SDS011;5599;52.210;21.046;2023-09-08T03:34:23;12.23;;;7.50;;
11090;SDS011;5599;52.210;21.046;2023-09-08T03:36:54;12.63;;;7.72;;
11090;SDS011;5599;52.210;21.046;2023-09-08T03:39:24;13.98;;;7.93;;
11090;SDS011;5599;52.210;21.046;2023-09-08T03:41:53;14.40;;;8.20;;
11090;SDS011;5599;52.210;21.046;2023-09-08T03:44:22;15.80;;;7.95;;
11090;SDS011;5599;52.210;21.046;2023-09-08T03:46:52;17.33;;;8.25;;
11090;SDS011;5599;52.210;21.046;2023-09-08T03:49:21;7.90;;;6.78;;
11090;SDS011;5599;52.210;21.046;2023-09-08T03:51:51;10.35;;;7.18;;
11090;SDS011;5599;52.210;21.046;2023-09-08T03:54:21;11.90;;;7.57;;
11090;SDS011;5599;52.210;21.046;2023-09-08T03:56:50;13.07;;;7.47;;
11090;SDS011;5599;52.210;21.046;2023-09-08T03:59:19;13.32;;;7.55;;
11090;SDS011;5599;52.210;21.046;2023-09-08T04:01:49;7.55;;;6.78;;
11090;SDS011;5599;52.210;21.046;2023-09-08T04:04:18;14.02;;;6.85;;
11090;SDS011;5599;52.210;21.046;2023-09-08T04:06:48;12.68;;;6.70;;
11090;SDS011;5599;52.210;21.046;2023-09-08T04:09:17;9.32;;;7.50;;
11090;SDS011;5599;52.210;21.046;2023-09-08T04:11:47;7.97;;;6.85;;
11090;SDS011;5599;52.210;21.046;2023-09-08T04:14:17;11.18;;;7.00;;
11090;SDS011;5599;52.210;21.046;2023-09-08T04:16:46;8.18;;;7.13;;
11090;SDS011;5599;52.210;21.046;2023-09-08T04:19:15;10.80;;;7.53;;
11090;SDS011;5599;52.210;21.046;2023-09-08T04:21:44;16.02;;;7.72;;
11090;SDS011;5599;52.210;21.046;2023-09-08T04:24:13;9.50;;;7.03;;
11090;SDS011;5599;52.210;21.046;2023-09-08T04:26:43;10.85;;;7.18;;
11090;SDS011;5599;52.210;21.046;2023-09-08T04:29:13;9.23;;;7.45;;
11090;SDS011;5599;52.210;21.046;2023-09-08T04:31:43;9.23;;;7.68;;
11090;SDS011;5599;52.210;21.046;2023-09-08T04:34:12;12.73;;;8.55;;
11090;SDS011;5599;52.210;21.046;2023-09-08T04:36:42;9.05;;;7.55;;
11090;SDS011;5599;52.210;21.046;2023-09-08T04:39:11;10.35;;;7.85;;
11090;SDS011;5599;52.210;21.046;2023-09-08T04:41:42;12.23;;;8.45;;
11090;SDS011;5599;52.210;21.046;2023-09-08T04:44:11;12.88;;;8.50;;
11090;SDS011;5599;52.210;21.046;2023-09-08T04:46:42;14.63;;;8.70;;
11090;SDS011;5599;52.210;21.046;2023-09-08T04:49:13;10.57;;;8.20;;
11090;SDS011;5599;52.210;21.046;2023-09-08T04:51:43;10.60;;;8.45;;
11090;SDS011;5599;52.210;21.046;2023-09-08T04:54:15;10.55;;;8.88;;
11090;SDS011;5599;52.210;21.046;2023-09-08T04:56:44;11.82;;;8.30;;
11090;SDS011;5599;52.210;21.046;2023-09-08T04:59:13;11.63;;;8.32;;
11090;SDS011;5599;52.210;21.046;2023-09-08T05:01:44;12.07;;;7.80;;
11090;SDS011;5599;52.210;21.046;2023-09-08T05:04:13;10.90;;;7.50;;
11090;SDS011;5599;52.210;21.046;2023-09-08T05:06:43;10.65;;;7.75;;
11090;SDS011;5599;52.210;21.046;2023-09-08T05:09:14;8.88;;;7.75;;
11090;SDS011;5599;52.210;21.046;2023-09-08T05:11:43;10.60;;;7.22;;
11090;SDS011;5599;52.210;21.046;2023-09-08T05:14:12;7.82;;;7.03;;
11090;SDS011;5599;52.210;21.046;2023-09-08T05:16:41;9.23;;;7.38;;
11090;SDS011;5599;52.210;21.046;2023-09-08T05:19:20;13.45;;;7.57;;
11090;SDS011;5599;52.210;21.046;2023-09-08T05:21:51;10.65;;;7.47;;
11090;SDS011;5599;52.210;21.046;2023-09-08T05:24:22;12.52;;;7.60;;
11090;SDS011;5599;52.210;21.046;2023-09-08T05:26:53;11.25;;;7.40;;
11090;SDS011;5599;52.210;21.046;2023-09-08T05:29:23;12.30;;;7.28;;
11090;SDS011;5599;52.210;21.046;2023-09-08T05:31:54;8.57;;;6.85;;
11090;SDS011;5599;52.210;21.046;2023-09-08T05:34:23;9.48;;;7.80;;
11090;SDS011;5599;52.210;21.046;2023-09-08T05:36:52;9.27;;;7.68;;
11090;SDS011;5599;52.210;21.046;2023-09-08T05:39:22;9.43;;;8.02;;
11090;SDS011;5599;52.210;21.046;2023-09-08T05:41:52;10.95;;;7.63;;
11090;SDS011;5599;52.210;21.046;2023-09-08T05:44:21;9.75;;;7.65;;
11090;SDS011;5599;52.210;21.046;2023-09-08T05:46:54;11.57;;;8.15;;
11090;SDS011;5599;52.210;21.046;2023-09-08T05:49:24;10.65;;;7.43;;
11090;SDS011;5599;52.210;21.046;2023-09-08T05:51:54;8.95;;;8.05;;
11090;SDS011;5599;52.210;21.046;2023-09-08T05:54:23;8.25;;;7.13;;
11090;SDS011;5599;52.210;21.046;2023-09-08T05:56:53;9.07;;;6.70;;
11090;SDS011;5599;52.210;21.046;2023-09-08T05:59:22;9.93;;;7.28;;
11090;SDS011;5599;52.210;21.046;2023-09-08T06:01:52;11.23;;;7.28;;
11090;SDS011;5599;52.210;21.046;2023-09-08T06:04:23;11.15;;;7.07;;
11090;SDS011;5599;52.210;21.046;2023-09-08T06:06:52;8.88;;;7.82;;
11090;SDS011;5599;52.210;21.046;2023-09-08T06:09:21;9.95;;;6.95;;
11090;SDS011;5599;52.210;21.046;2023-09-08T06:11:51;9.98;;;7.80;;
11090;SDS011;5599;52.210;21.046;2023-09-08T06:14:20;10.68;;;7.28;;
11090;SDS011;5599;52.210;21.046;2023-09-08T06:16:50;11.07;;;6.97;;
11090;SDS011;5599;52.210;21.046;2023-09-08T06:19:19;8.40;;;6.68;;
11090;SDS011;5599;52.210;21.046;2023-09-08T06:21:51;14.52;;;7.55;;
11090;SDS011;5599;52.210;21.046;2023-09-08T06:24:21;8.45;;;6.78;;
11090;SDS011;5599;52.210;21.046;2023-09-08T06:26:51;9.27;;;7.38;;
11090;SDS011;5599;52.210;21.046;2023-09-08T06:29:22;8.43;;;6.78;;
11090;SDS011;5599;52.210;21.046;2023-09-08T06:31:51;7.05;;;6.40;;
11090;SDS011;5599;52.210;21.046;2023-09-08T06:34:21;7.97;;;7.18;;
11090;SDS011;5599;52.210;21.046;2023-09-08T06:36:52;8.60;;;7.03;;
11090;SDS011;5599;52.210;21.046;2023-09-08T06:39:21;9.07;;;6.72;;
11090;SDS011;5599;52.210;21.046;2023-09-08T06:41:50;9.18;;;7.32;;
11090;SDS011;5599;52.210;21.046;2023-09-08T06:44:20;9.32;;;6.88;;
11090;SDS011;5599;52.210;21.046;2023-09-08T06:46:49;7.47;;;6.47;;
11090;SDS011;5599;52.210;21.046;2023-09-08T06:49:18;12.07;;;7.13;;
11090;SDS011;5599;52.210;21.046;2023-09-08T06:51:48;13.48;;;7.45;;
11090;SDS011;5599;52.210;21.046;2023-09-08T06:54:19;8.98;;;6.85;;
11090;SDS011;5599;52.210;21.046;2023-09-08T06:56:49;8.23;;;6.70;;
11090;SDS011;5599;52.210;21.046;2023-09-08T06:59:18;7.25;;;6.55;;
11090;SDS011;5599;52.210;21.046;2023-09-08T07:01:47;9.60;;;7.10;;
11090;SDS011;5599;52.210;21.046;2023-09-08T07:04:18;8.77;;;6.78;;
11090;SDS011;5599;52.210;21.046;2023-09-08T07:06:47;7.53;;;6.57;;
11090;SDS011;5599;52.210;21.046;2023-09-08T07:09:19;13.65;;;7.32;;
11090;SDS011;5599;52.210;21.046;2023-09-08T07:11:48;10.73;;;6.75;;
11090;SDS011;5599;52.210;21.046;2023-09-08T07:14:17;9.90;;;7.18;;
11090;SDS011;5599;52.210;21.046;2023-09-08T07:16:47;11.73;;;7.07;;
11090;SDS011;5599;52.210;21.046;2023-09-08T07:19:17;10.88;;;6.85;;
11090;SDS011;5599;52.210;21.046;2023-09-08T07:21:46;11.00;;;6.75;;
11090;SDS011;5599;52.210;21.046;2023-09-08T07:24:16;6.88;;;5.82;;
11090;SDS011;5599;52.210;21.046;2023-09-08T07:26:46;7.07;;;6.35;;
11090;SDS011;5599;52.210;21.046;2023-09-08T07:29:16;10.18;;;6.45;;
11090;SDS011;5599;52.210;21.046;2023-09-08T07:31:46;7.15;;;6.45;;
11090;SDS011;5599;52.210;21.046;2023-09-08T07:34:15;11.90;;;7.10;;
11090;SDS011;5599;52.210;21.046;2023-09-08T07:36:45;8.65;;;6.18;;
11090;SDS011;5599;52.210;21.046;2023-09-08T07:39:14;11.57;;;7.25;;
11090;SDS011;5599;52.210;21.046;2023-09-08T07:41:43;9.20;;;6.55;;
11090;SDS011;5599;52.210;21.046;2023-09-08T07:44:14;8.85;;;6.60;;
11090;SDS011;5599;52.210;21.046;2023-09-08T07:46:43;13.55;;;6.63;;
11090;SDS011;5599;52.210;21.046;2023-09-08T07:49:13;7.57;;;6.32;;
11090;SDS011;5599;52.210;21.046;2023-09-08T07:51:42;7.47;;;6.10;;
11090;SDS011;5599;52.210;21.046;2023-09-08T07:54:11;7.25;;;6.53;;
11090;SDS011;5599;52.210;21.046;2023-09-08T07:56:40;12.35;;;6.40;;
11090;SDS011;5599;52.210;21.046;2023-09-08T07:59:09;8.23;;;6.10;;
11090;SDS011;5599;52.210;21.046;2023-09-08T08:01:40;7.35;;;6.18;;
11090;SDS011;5599;52.210;21.046;2023-09-08T08:04:08;7.30;;;6.40;;
11090;SDS011;5599;52.210;21.046;2023-09-08T08:06:38;8.90;;;5.90;;
11090;SDS011;5599;52.210;21.046;2023-09-08T08:09:07;6.15;;;5.50;;
11090;SDS011;5599;52.210;21.046;2023-09-08T08:11:37;7.78;;;6.72;;
11090;SDS011;5599;52.210;21.046;2023-09-08T08:14:06;7.07;;;6.40;;
11090;SDS011;5599;52.210;21.046;2023-09-08T08:16:35;7.72;;;5.90;;
11090;SDS011;5599;52.210;21.046;2023-09-08T08:19:06;9.32;;;5.97;;
11090;SDS011;5599;52.210;21.046;2023-09-08T08:21:35;8.38;;;6.05;;
11090;SDS011;5599;52.210;21.046;2023-09-08T08:24:05;9.35;;;6.28;;
11090;SDS011;5599;52.210;21.046;2023-09-08T08:26:34;9.10;;;6.57;;
11090;SDS011;5599;52.210;21.046;2023-09-08T08:29:03;14.70;;;10.20;;
11090;SDS011;5599;52.210;21.046;2023-09-08T08:31:32;12.32;;;8.02;;
11090;SDS011;5599;52.210;21.046;2023-09-08T08:34:01;9.35;;;8.32;;
11090;SDS011;5599;52.210;21.046;2023-09-08T08:36:33;7.18;;;5.85;;
11090;SDS011;5599;52.210;21.046;2023-09-08T08:39:02;6.97;;;5.63;;
11090;SDS011;5599;52.210;21.046;2023-09-08T08:41:32;6.55;;;5.82;;
11090;SDS011;5599;52.210;21.046;2023-09-08T08:44:05;8.55;;;5.88;;
11090;SDS011;5599;52.210;21.046;2023-09-08T08:46:35;7.95;;;6.00;;
11090;SDS011;5599;52.210;21.046;2023-09-08T08:49:05;8.52;;;5.63;;
11090;SDS011;5599;52.210;21.046;2023-09-08T08:51:37;6.30;;;5.68;;
11090;SDS011;5599;52.210;21.046;2023-09-08T08:54:08;10.52;;;5.95;;
11090;SDS011;5599;52.210;21.046;2023-09-08T08:56:37;7.97;;;6.05;;
11090;SDS011;5599;52.210;21.046;2023-09-08T08:59:07;8.15;;;6.18;;
11090;SDS011;5599;52.210;21.046;2023-09-08T09:01:37;7.90;;;5.50;;
11090;SDS011;5599;52.210;21.046;2023-09-08T09:04:10;8.10;;;6.30;;
11090;SDS011;5599;52.210;21.046;2023-09-08T09:06:42;8.35;;;6.47;;
11090;SDS011;5599;52.210;21.046;2023-09-08T09:09:11;8.55;;;5.88;;
11090;SDS011;5599;52.210;21.046;2023-09-08T09:11:41;11.35;;;5.80;;
11090;SDS011;5599;52.210;21.046;2023-09-08T09:14:10;7.90;;;5.95;;
11090;SDS011;5599;52.210;21.046;2023-09-08T09:16:40;7.32;;;5.75;;
11090;SDS011;5599;52.210;21.046;2023-09-08T09:19:10;8.90;;;6.38;;
11090;SDS011;5599;52.210;21.046;2023-09-08T09:21:49;7.65;;;6.10;;
11090;SDS011;5599;52.210;21.046;2023-09-08T09:24:27;7.00;;;5.70;;
11090;SDS011;5599;52.210;21.046;2023-09-08T09:26:58;7.10;;;5.93;;
11090;SDS011;5599;52.210;21.046;2023-09-08T09:29:27;6.60;;;5.60;;
11090;SDS011;5599;52.210;21.046;2023-09-08T09:31:57;10.07;;;5.78;;
11090;SDS011;5599;52.210;21.046;2023-09-08T09:34:32;10.23;;;5.50;;
11090;SDS011;5599;52.210;21.046;2023-09-08T09:37:03;8.35;;;5.53;;
11090;SDS011;5599;52.210;21.046;2023-09-08T09:39:34;7.45;;;5.70;;
11090;SDS011;5599;52.210;21.046;2023-09-08T09:42:03;10.82;;;5.28;;
11090;SDS011;5599;52.210;21.046;2023-09-08T09:44:33;10.48;;;5.75;;
11090;SDS011;5599;52.210;21.046;2023-09-08T09:47:02;7.03;;;5.40;;
11090;SDS011;5599;52.210;21.046;2023-09-08T09:49:32;11.07;;;5.43;;
11090;SDS011;5599;52.210;21.046;2023-09-08T09:52:12;8.30;;;5.13;;
11090;SDS011;5599;52.210;21.046;2023-09-08T09:54:43;5.68;;;4.80;;
11090;SDS011;5599;52.210;21.046;2023-09-08T09:57:12;6.07;;;4.78;;
11090;SDS011;5599;52.210;21.046;2023-09-08T09:59:42;12.02;;;5.28;;
11090;SDS011;5599;52.210;21.046;2023-09-08T10:02:12;6.07;;;5.47;;
11090;SDS011;5599;52.210;21.046;2023-09-08T10:04:42;9.13;;;4.68;;
11090;SDS011;5599;52.210;21.046;2023-09-08T10:07:13;6.00;;;4.50;;
11090;SDS011;5599;52.210;21.046;2023-09-08T10:09:43;5.32;;;4.50;;
11090;SDS011;5599;52.210;21.046;2023-09-08T10:12:13;5.22;;;4.72;;
11090;SDS011;5599;52.210;21.046;2023-09-08T10:14:44;5.95;;;5.15;;
11090;SDS011;5599;52.210;21.046;2023-09-08T10:17:18;9.77;;;5.40;;
11090;SDS011;5599;52.210;21.046;2023-09-08T10:19:52;7.00;;;5.20;;
11090;SDS011;5599;52.210;21.046;2023-09-08T10:22:28;4.90;;;4.30;;
11090;SDS011;5599;52.210;21.046;2023-09-08T10:24:59;7.10;;;5.40;;
11090;SDS011;5599;52.210;21.046;2023-09-08T10:27:34;8.45;;;5.15;;
11090;SDS011;5599;52.210;21.046;2023-09-08T10:30:04;6.13;;;5.35;;
11090;SDS011;5599;52.210;21.046;2023-09-08T10:32:35;6.43;;;5.13;;
11090;SDS011;5599;52.210;21.046;2023-09-08T10:35:05;5.40;;;4.70;;
11090;SDS011;5599;52.210;21.046;2023-09-08T10:37:38;5.78;;;4.45;;
11090;SDS011;5599;52.210;21.046;2023-09-08T10:40:20;5.45;;;4.95;;
11090;SDS011;5599;52.210;21.046;2023-09-08T10:43:05;6.78;;;4.57;;
11090;SDS011;5599;52.210;21.046;2023-09-08T10:45:35;8.02;;;4.90;;
11090;SDS011;5599;52.210;21.046;2023-09-08T10:48:05;6.30;;;5.00;;
11090;SDS011;5599;52.210;21.046;2023-09-08T10:50:38;6.03;;;4.90;;
11090;SDS011;5599;52.210;21.046;2023-09-08T10:53:14;5.53;;;5.00;;
11090;SDS011;5599;52.210;21.046;2023-09-08T10:55:45;6.15;;;5.03;;
11090;SDS011;5599;52.210;21.046;2023-09-08T11:02:18;6.65;;;4.90;;
11090;SDS011;5599;52.210;21.046;2023-09-08T11:05:02;8.68;;;4.50;;
11090;SDS011;5599;52.210;21.046;2023-09-08T11:07:32;5.18;;;4.70;;
11090;SDS011;5599;52.210;21.046;2023-09-08T11:10:03;5.20;;;4.63;;
11090;SDS011;5599;52.210;21.046;2023-09-08T11:12:33;7.18;;;4.80;;
11090;SDS011;5599;52.210;21.046;2023-09-08T11:15:05;6.97;;;4.80;;
11090;SDS011;5599;52.210;21.046;2023-09-08T11:17:36;5.10;;;4.70;;
11090;SDS011;5599;52.210;21.046;2023-09-08T11:20:07;4.80;;;4.40;;
11090;SDS011;5599;52.210;21.046;2023-09-08T11:22:39;5.35;;;4.60;;
11090;SDS011;5599;52.210;21.046;2023-09-08T11:25:11;6.07;;;4.70;;
11090;SDS011;5599;52.210;21.046;2023-09-08T11:27:40;7.43;;;5.15;;
11090;SDS011;5599;52.210;21.046;2023-09-08T11:30:12;8.18;;;5.05;;
11090;SDS011;5599;52.210;21.046;2023-09-08T11:32:41;6.28;;;4.47;;
11090;SDS011;5599;52.210;21.046;2023-09-08T11:35:12;7.07;;;5.10;;
11090;SDS011;5599;52.210;21.046;2023-09-08T11:37:43;11.52;;;4.80;;
11090;SDS011;5599;52.210;21.046;2023-09-08T11:40:15;7.13;;;5.10;;
11090;SDS011;5599;52.210;21.046;2023-09-08T11:42:46;6.07;;;4.93;;
11090;SDS011;5599;52.210;21.046;2023-09-08T11:45:16;6.13;;;5.50;;
11090;SDS011;5599;52.210;21.046;2023-09-08T11:47:48;8.13;;;5.18;;
11090;SDS011;5599;52.210;21.046;2023-09-08T11:50:18;6.53;;;4.82;;
11090;SDS011;5599;52.210;21.046;2023-09-08T11:52:48;6.60;;;4.63;;
11090;SDS011;5599;52.210;21.046;2023-09-08T11:55:20;5.43;;;4.93;;
11090;SDS011;5599;52.210;21.046;2023-09-08T11:57:51;5.88;;;4.93;;
11090;SDS011;5599;52.210;21.046;2023-09-08T12:00:24;6.65;;;4.80;;
11090;SDS011;5599;52.210;21.046;2023-09-08T12:02:55;6.97;;;5.70;;
11090;SDS011;5599;52.210;21.046;2023-09-08T12:05:37;7.07;;;4.70;;
11090;SDS011;5599;52.210;21.046;2023-09-08T12:08:08;9.00;;;5.07;;
11090;SDS011;5599;52.210;21.046;2023-09-08T12:10:41;5.80;;;4.80;;
11090;SDS011;5599;52.210;21.046;2023-09-08T12:13:11;5.70;;;5.13;;
11090;SDS011;5599;52.210;21.046;2023-09-08T12:15:42;5.70;;;5.10;;
11090;SDS011;5599;52.210;21.046;2023-09-08T12:18:12;7.13;;;5.00;;
11090;SDS011;5599;52.210;21.046;2023-09-08T12:20:43;7.07;;;5.00;;
11090;SDS011;5599;52.210;21.046;2023-09-08T12:23:16;6.85;;;5.60;;
11090;SDS011;5599;52.210;21.046;2023-09-08T12:25:49;5.57;;;5.00;;
11090;SDS011;5599;52.210;21.046;2023-09-08T12:28:20;6.95;;;5.30;;
11090;SDS011;5599;52.210;21.046;2023-09-08T12:30:49;8.65;;;5.53;;
11090;SDS011;5599;52.210;21.046;2023-09-08T12:33:20;7.25;;;5.32;;
11090;SDS011;5599;52.210;21.046;2023-09-08T12:35:50;5.78;;;5.13;;
11090;SDS011;5599;52.210;21.046;2023-09-08T12:38:22;5.78;;;5.20;;
11090;SDS011;5599;52.210;21.046;2023-09-08T12:41:05;5.63;;;5.10;;
11090;SDS011;5599;52.210;21.046;2023-09-08T12:43:39;5.90;;;5.28;;
11090;SDS011;5599;52.210;21.046;2023-09-08T12:46:08;5.55;;;5.05;;
11090;SDS011;5599;52.210;21.046;2023-09-08T12:48:38;6.30;;;5.70;;
11090;SDS011;5599;52.210;21.046;2023-09-08T12:51:07;5.80;;;5.20;;
11090;SDS011;5599;52.210;21.046;2023-09-08T12:53:36;7.28;;;5.65;;
11090;SDS011;5599;52.210;21.046;2023-09-08T12:56:07;6.90;;;5.15;;
11090;SDS011;5599;52.210;21.046;2023-09-08T12:58:36;6.47;;;5.82;;
11090;SDS011;5599;52.210;21.046;2023-09-08T13:01:06;7.38;;;5.80;;
11090;SDS011;5599;52.210;21.046;2023-09-08T13:03:35;5.35;;;4.95;;
11090;SDS011;5599;52.210;21.046;2023-09-08T13:06:05;8.23;;;5.05;;
11090;SDS011;5599;52.210;21.046;2023-09-08T13:08:35;9.93;;;5.63;;
11090;SDS011;5599;52.210;21.046;2023-09-08T13:11:05;5.93;;;5.32;;
11090;SDS011;5599;52.210;21.046;2023-09-08T13:13:36;5.72;;;5.22;;
11090;SDS011;5599;52.210;21.046;2023-09-08T13:16:05;7.85;;;5.53;;
11090;SDS011;5599;52.210;21.046;2023-09-08T13:18:36;6.18;;;5.45;;
11090;SDS011;5599;52.210;21.046;2023-09-08T13:21:08;9.13;;;6.22;;
11090;SDS011;5599;52.210;21.046;2023-09-08T13:23:38;7.15;;;5.70;;
11090;SDS011;5599;52.210;21.046;2023-09-08T13:26:08;6.15;;;5.20;;
11090;SDS011;5599;52.210;21.046;2023-09-08T13:28:39;5.88;;;5.28;;
11090;SDS011;5599;52.210;21.046;2023-09-08T13:31:09;7.65;;;5.68;;
11090;SDS011;5599;52.210;21.046;2023-09-08T13:33:40;5.80;;;5.20;;
11090;SDS011;5599;52.210;21.046;2023-09-08T13:36:11;7.55;;;5.20;;
11090;SDS011;5599;52.210;21.046;2023-09-08T13:38:41;6.90;;;5.55;;
11090;SDS011;5599;52.210;21.046;2023-09-08T13:41:11;6.93;;;6.13;;
11090;SDS011;5599;52.210;21.046;2023-09-08T13:43:42;6.60;;;5.25;;
11090;SDS011;5599;52.210;21.046;2023-09-08T13:46:13;8.98;;;5.22;;
11090;SDS011;5599;52.210;21.046;2023-09-08T13:48:44;6.13;;;5.45;;
11090;SDS011;5599;52.210;21.046;2023-09-08T13:51:16;9.07;;;5.55;;
11090;SDS011;5599;52.210;21.046;2023-09-08T13:53:48;7.90;;;5.38;;
11090;SDS011;5599;52.210;21.046;2023-09-08T13:56:19;6.68;;;5.30;;
11090;SDS011;5599;52.210;21.046;2023-09-08T13:58:53;7.43;;;5.35;;
11090;SDS011;5599;52.210;21.046;2023-09-08T14:01:24;5.85;;;5.20;;
11090;SDS011;5599;52.210;21.046;2023-09-08T14:04:00;8.48;;;5.65;;
11090;SDS011;5599;52.210;21.046;2023-09-08T14:06:37;6.43;;;5.53;;
11090;SDS011;5599;52.210;21.046;2023-09-08T14:09:16;10.30;;;5.90;;
11090;SDS011;5599;52.210;21.046;2023-09-08T14:12:07;7.60;;;6.07;;
11090;SDS011;5599;52.210;21.046;2023-09-08T14:14:41;8.15;;;6.22;;
11090;SDS011;5599;52.210;21.046;2023-09-08T14:17:12;6.50;;;5.75;;
11090;SDS011;5599;52.210;21.046;2023-09-08T14:19:42;5.72;;;5.22;;
11090;SDS011;5599;52.210;21.046;2023-09-08T14:22:12;6.03;;;5.40;;
11090;SDS011;5599;52.210;21.046;2023-09-08T14:24:42;5.72;;;5.05;;
11090;SDS011;5599;52.210;21.046;2023-09-08T14:27:12;7.60;;;5.07;;
11090;SDS011;5599;52.210;21.046;2023-09-08T14:29:45;5.90;;;5.03;;
11090;SDS011;5599;52.210;21.046;2023-09-08T14:32:14;8.15;;;5.30;;
11090;SDS011;5599;52.210;21.046;2023-09-08T14:34:45;5.72;;;5.22;;
11090;SDS011;5599;52.210;21.046;2023-09-08T14:37:15;7.63;;;5.57;;
11090;SDS011;5599;52.210;21.046;2023-09-08T14:39:46;7.32;;;4.97;;
11090;SDS011;5599;52.210;21.046;2023-09-08T14:42:17;7.05;;;5.38;;
11090;SDS011;5599;52.210;21.046;2023-09-08T14:44:50;8.50;;;5.13;;
11090;SDS011;5599;52.210;21.046;2023-09-08T14:47:20;6.00;;;5.40;;
11090;SDS011;5599;52.210;21.046;2023-09-08T14:49:50;5.20;;;4.80;;
11090;SDS011;5599;52.210;21.046;2023-09-08T14:52:21;7.25;;;4.97;;
11090;SDS011;5599;52.210;21.046;2023-09-08T14:54:51;7.80;;;5.20;;
11090;SDS011;5599;52.210;21.046;2023-09-08T14:57:22;5.20;;;4.70;;
11090;SDS011;5599;52.210;21.046;2023-09-08T14:59:54;7.88;;;5.30;;
11090;SDS011;5599;52.210;21.046;2023-09-08T15:02:25;6.20;;;5.32;;
11090;SDS011;5599;52.210;21.046;2023-09-08T15:04:55;5.70;;;4.68;;
11090;SDS011;5599;52.210;21.046;2023-09-08T15:07:25;6.50;;;5.07;;